createdAt,value
2023-11-03T02:04:43.102Z,92182.69
2023-11-03T02:07:11.200Z,92188.72
2023-11-03T02:12:41.852Z,92184.34
2023-11-03T02:15:13.025Z,92174.59
2023-11-03T02:17:40.883Z,92165.34
2023-11-03T02:20:16.698Z,92166.72
2023-11-03T07:43:40.464Z,92223.31
2023-11-03T10:44:07.787Z,92341.59
2023-11-03T10:46:37.218Z,92351.63
2023-11-03T10:49:11.779Z,92348.88
2023-11-03T10:51:40.759Z,92349.00
2023-11-03T10:54:11.694Z,92354.38
2023-11-03T10:56:56.077Z,92344.28
2023-11-03T10:59:33.787Z,92353.31
2023-11-03T11:02:06.429Z,92353.78
2023-11-03T11:04:36.539Z,92348.72
2023-11-03T11:07:07.207Z,92345.75
2023-11-03T11:09:50.142Z,92356.78
2023-11-03T11:12:16.793Z,92352.00
2023-11-03T11:14:45.336Z,92348.75
2023-11-03T11:17:17.109Z,92360.66
2023-11-03T11:19:44.787Z,92352.41
2023-11-03T11:22:14.548Z,92358.16
2023-11-03T11:24:44.721Z,92370.22
2023-11-03T11:27:13.628Z,92374.41
2023-11-03T11:29:40.728Z,92376.44
2023-11-03T11:32:11.660Z,92375.94
2023-11-03T11:34:41.634Z,92384.75
2023-11-03T11:37:30.132Z,92383.00
2023-11-03T11:39:57.617Z,92383.50
2023-11-03T11:42:26.627Z,92379.78
2023-11-03T11:44:53.716Z,92380.75
2023-11-03T11:47:25.643Z,92388.44
2023-11-03T11:49:53.816Z,92391.97
2023-11-03T11:52:21.713Z,92384.97
2023-11-03T11:54:48.343Z,92398.84
2023-11-03T11:57:15.749Z,92394.81
2023-11-03T11:59:42.795Z,92394.66
2023-11-03T12:02:09.880Z,92396.63
2023-11-03T12:04:40.258Z,92398.38
2023-11-03T12:07:07.190Z,92398.97
2023-11-03T12:09:37.770Z,92394.59
2023-11-03T12:12:04.863Z,92407.94
2023-11-03T12:14:31.480Z,92400.72
2023-11-03T12:16:58.171Z,92395.47
2023-11-03T12:19:25.033Z,92398.09
2023-11-03T12:21:53.099Z,92401.50
2023-11-03T12:24:20.134Z,92393.91
2023-11-03T12:26:46.872Z,92401.50
2023-11-03T12:29:28.281Z,92392.34
2023-11-03T12:31:55.473Z,92396.94
2023-11-03T12:34:22.233Z,92391.19
2023-11-03T12:36:50.094Z,92394.41
2023-11-03T12:39:19.515Z,92387.78
2023-11-03T12:42:00.786Z,92392.75
2023-11-03T12:44:27.400Z,92384.78
2023-11-03T12:46:55.874Z,92387.75
2023-11-03T12:49:25.432Z,92389.69
2023-11-03T12:51:55.223Z,92394.06
2023-11-03T12:54:23.230Z,92388.69
2023-11-03T12:56:57.410Z,92391.81
2023-11-03T12:59:24.508Z,92394.16
2023-11-03T13:01:52.095Z,92394.63
2023-11-03T13:04:19.799Z,92395.63
2023-11-03T13:06:49.820Z,92397.03
2023-11-03T13:09:20.603Z,92401.22
2023-11-03T13:11:48.790Z,92402.72
2023-11-03T13:14:15.915Z,92400.22
2023-11-03T13:16:43.270Z,92397.75
2023-11-03T13:19:11.216Z,92402.91
2023-11-03T13:21:38.547Z,92401.22
2023-11-03T13:24:06.642Z,92397.69
2023-11-03T13:26:33.237Z,92400.22
2023-11-03T13:29:01.405Z,92399.94
2023-11-03T13:31:28.601Z,92404.09
2023-11-03T13:33:55.509Z,92402.13
2023-11-03T13:36:22.272Z,92405.72
2023-11-03T13:38:51.552Z,92411.47
2023-11-03T13:41:18.029Z,92415.66
2023-11-03T13:43:45.568Z,92424.03
2023-11-03T13:46:18.115Z,92424.97
2023-11-03T13:48:48.702Z,92432.25
2023-11-03T13:51:15.372Z,92431.78
2023-11-03T13:53:43.510Z,92442.78
2023-11-03T13:56:10.173Z,92448.03
2023-11-03T13:58:36.876Z,92444.47
2023-11-03T14:01:03.653Z,92445.56
2023-11-03T14:03:35.276Z,92452.34
2023-11-03T14:06:06.088Z,92453.13
2023-11-03T14:08:34.467Z,92462.59
2023-11-03T14:11:05.206Z,92460.06
2023-11-03T14:13:33.326Z,92462.22
2023-11-03T14:16:00.275Z,92478.59
2023-11-03T14:18:27.715Z,92480.84
2023-11-03T14:20:59.540Z,92488.25
2023-11-03T14:23:32.055Z,92489.03
2023-11-03T14:25:59.104Z,92491.97
2023-11-03T14:28:25.882Z,92497.50
2023-11-03T14:30:54.468Z,92498.59
2023-11-03T14:33:21.225Z,92503.53
2023-11-03T14:35:48.742Z,92502.97
2023-11-03T14:38:16.854Z,92498.16
2023-11-03T14:40:43.439Z,92503.91
2023-11-03T14:43:09.999Z,92510.06
2023-11-03T14:45:36.522Z,92510.66
2023-11-03T14:48:03.262Z,92515.16
2023-11-03T14:50:29.856Z,92518.84
2023-11-03T14:52:56.460Z,92519.44
2023-11-03T14:55:24.480Z,92528.69
2023-11-03T14:57:51.378Z,92531.63
2023-11-03T15:00:21.304Z,92535.03
2023-11-03T15:02:49.684Z,92537.38
2023-11-03T15:05:16.841Z,92536.09
2023-11-03T15:07:43.623Z,92535.31
2023-11-03T15:10:12.685Z,92531.72
2023-11-03T15:12:44.794Z,92526.28
2023-11-03T15:15:17.240Z,92533.09
2023-11-03T15:17:46.986Z,92529.88
2023-11-03T15:20:15.867Z,92537.16
2023-11-03T15:22:42.715Z,92529.88
2023-11-03T15:25:09.393Z,92536.19
2023-11-03T15:27:36.506Z,92549.94
2023-11-03T15:30:04.824Z,92538.16
2023-11-03T15:32:31.551Z,92551.59
2023-11-03T15:34:59.965Z,92553.19
2023-11-03T15:37:27.868Z,92556.72
2023-11-03T15:39:54.430Z,92562.84
2023-11-03T15:42:23.040Z,92567.44
2023-11-03T15:44:49.871Z,92570.34
2023-11-03T15:47:20.936Z,92579.00
2023-11-03T15:49:48.571Z,92582.97
2023-11-03T15:52:16.409Z,92588.53
2023-11-03T15:54:45.991Z,92592.53
2023-11-03T15:57:12.619Z,92582.22
2023-11-03T15:59:39.247Z,92590.50
2023-11-03T16:02:08.025Z,92591.63
2023-11-03T16:04:36.108Z,92597.97
2023-11-03T16:07:02.908Z,92607.69
2023-11-03T16:09:29.451Z,92602.13
2023-11-03T16:11:56.684Z,92604.31
2023-11-03T16:14:23.442Z,92610.91
2023-11-03T16:16:49.999Z,92609.16
2023-11-03T16:19:17.709Z,92621.00
2023-11-03T16:21:46.914Z,92627.63
2023-11-03T16:24:13.875Z,92628.13
2023-11-03T16:26:41.530Z,92628.13
2023-11-03T16:29:08.537Z,92636.00
2023-11-03T16:31:35.101Z,92636.75
2023-11-03T16:34:01.778Z,92640.16
2023-11-03T16:36:29.861Z,92638.31
2023-11-03T16:38:58.258Z,92643.66
2023-11-03T16:41:26.320Z,92642.38
2023-11-03T16:43:53.689Z,92640.06
2023-11-03T16:46:20.460Z,92640.25
2023-11-03T16:48:47.078Z,92643.72
2023-11-03T16:51:14.337Z,92643.34
2023-11-03T16:53:40.812Z,92643.13
2023-11-03T16:56:08.909Z,92646.03
2023-11-03T16:58:38.551Z,92650.03
2023-11-03T17:01:05.874Z,92648.44
2023-11-03T17:03:33.435Z,92655.78
2023-11-03T17:06:00.177Z,92653.34
2023-11-03T17:08:29.106Z,92655.69
2023-11-03T17:10:56.592Z,92657.75
2023-11-03T17:13:26.432Z,92658.50
2023-11-03T17:15:52.997Z,92667.66
2023-11-03T17:18:19.653Z,92674.19
2023-11-03T17:20:46.298Z,92672.63
2023-11-03T17:23:13.773Z,92678.19
2023-11-03T17:25:40.479Z,92684.00
2023-11-03T17:28:09.448Z,92680.56
2023-11-03T17:30:38.068Z,92682.72
2023-11-03T17:33:05.226Z,92681.97
2023-11-03T17:35:31.807Z,92687.47
2023-11-03T17:37:59.183Z,92685.94
2023-11-03T17:40:26.573Z,92695.94
2023-11-03T17:42:53.350Z,92687.06
2023-11-03T17:45:20.944Z,92694.72
2023-11-03T17:47:50.141Z,92696.84
2023-11-03T17:50:18.497Z,92690.06
2023-11-03T17:52:45.234Z,92691.59
2023-11-03T17:55:14.843Z,92698.41
2023-11-03T17:57:43.439Z,92693.66
2023-11-03T18:00:15.828Z,92693.66
2023-11-03T18:02:43.772Z,92699.69
2023-11-03T18:05:11.982Z,92704.16
2023-11-03T18:07:41.698Z,92702.88
2023-11-03T18:10:10.701Z,92712.59
2023-11-03T18:12:40.683Z,92707.34
2023-11-03T18:15:08.655Z,92716.31
2023-11-03T18:17:35.280Z,92714.97
2023-11-03T18:20:02.199Z,92711.53
2023-11-03T18:22:33.260Z,92715.75
2023-11-03T18:25:00.543Z,92715.44
2023-11-03T18:27:27.211Z,92724.13
2023-11-03T18:29:53.981Z,92730.13
2023-11-03T18:32:20.521Z,92727.00
2023-11-03T18:34:47.226Z,92736.81
2023-11-03T18:37:15.197Z,92740.78
2023-11-03T18:39:44.737Z,92745.25
2023-11-03T18:42:11.530Z,92738.94
2023-11-03T18:44:38.029Z,92741.28
2023-11-03T18:47:04.688Z,92746.53
2023-11-03T18:52:00.632Z,92745.19
2023-11-03T18:55:55.782Z,92749.38
2023-11-03T18:58:22.364Z,92744.63
2023-11-03T19:06:03.366Z,92745.25
2023-11-03T19:07:49.007Z,92752.34
2023-11-03T19:10:15.750Z,92760.22
2023-11-03T19:12:44.312Z,92763.63
2023-11-03T19:15:12.067Z,92767.81
2023-11-03T19:17:40.306Z,92763.63
2023-11-03T19:20:07.547Z,92771.44
2023-11-03T19:22:34.356Z,92772.16
2023-11-03T19:25:00.994Z,92780.53
2023-11-03T19:27:30.153Z,92782.66
2023-11-03T19:29:58.823Z,92779.53
2023-11-03T19:32:25.718Z,92789.31
2023-11-03T19:34:52.371Z,92796.75
2023-11-03T19:37:18.902Z,92794.69
2023-11-03T19:39:45.830Z,92799.50
2023-11-03T19:42:15.501Z,92799.03
2023-11-03T19:44:42.664Z,92807.94
2023-11-03T19:47:11.297Z,92806.38
2023-11-03T19:49:37.993Z,92805.59
2023-11-03T19:52:04.889Z,92814.03
2023-11-03T19:54:35.330Z,92814.31
2023-11-03T19:57:02.422Z,92811.69
2023-11-03T19:59:29.296Z,92823.22
2023-11-03T20:01:55.801Z,92828.47
2023-11-03T20:04:26.392Z,92816.44
2023-11-03T20:06:56.101Z,92829.56
2023-11-03T20:09:22.872Z,92829.56
2023-11-03T20:11:49.453Z,92829.28
2023-11-03T20:14:17.514Z,92827.44
2023-11-03T20:16:44.863Z,92828.47
2023-11-03T20:19:12.281Z,92831.91
2023-11-03T20:21:40.461Z,92828.22
2023-11-03T20:24:08.006Z,92832.38
2023-11-03T20:26:35.953Z,92842.88
2023-11-03T20:29:02.572Z,92840.50
2023-11-03T20:31:29.442Z,92842.56
2023-11-03T20:33:56.733Z,92843.84
2023-11-03T20:36:23.452Z,92841.72
2023-11-03T20:38:52.825Z,92845.41
2023-11-03T20:41:19.320Z,92848.88
2023-11-03T20:43:45.842Z,92855.75
2023-11-03T20:46:12.459Z,92854.47
2023-11-03T20:48:39.079Z,92853.38
2023-11-03T20:51:06.646Z,92862.00
2023-11-03T20:53:33.267Z,92858.81
2023-11-03T20:56:01.164Z,92861.44
2023-11-03T20:58:27.767Z,92854.63
2023-11-03T21:00:54.439Z,92851.78
2023-11-03T21:03:21.783Z,92853.63
2023-11-03T21:05:48.674Z,92858.38
2023-11-03T21:08:15.380Z,92853.38
2023-11-03T21:10:42.160Z,92853.94
2023-11-03T21:13:10.218Z,92844.28
2023-11-03T21:15:37.676Z,92846.63
2023-11-03T21:18:04.897Z,92841.38
2023-11-03T21:20:31.695Z,92844.78
2023-11-03T21:22:58.360Z,92835.56
2023-11-03T21:25:25.032Z,92845.03
2023-11-03T21:27:51.601Z,92837.94
2023-11-03T21:30:19.968Z,92838.44
2023-11-03T21:32:46.546Z,92828.72
2023-11-03T21:35:13.477Z,92835.00
2023-11-03T21:37:40.404Z,92836.34
2023-11-03T21:40:09.285Z,92831.66
2023-11-03T21:42:35.888Z,92828.31
2023-11-03T21:45:02.461Z,92831.25
2023-11-03T21:47:30.397Z,92835.47
2023-11-03T21:49:56.917Z,92832.63
2023-11-03T21:52:23.400Z,92834.75
2023-11-03T21:54:50.505Z,92829.00
2023-11-03T21:57:17.160Z,92827.69
2023-11-03T21:59:43.715Z,92829.34
2023-11-03T22:02:10.514Z,92833.00
2023-11-03T22:04:38.447Z,92824.91
2023-11-03T22:07:08.418Z,92828.09
2023-11-03T22:09:36.414Z,92829.97
2023-11-03T22:12:03.305Z,92820.88
2023-11-03T22:14:30.178Z,92823.53
2023-11-03T22:16:56.723Z,92825.69
2023-11-03T22:19:23.809Z,92824.44
2023-11-03T22:21:52.119Z,92827.66
2023-11-03T22:24:18.689Z,92824.31
2023-11-03T22:26:46.338Z,92829.31
2023-11-03T22:29:14.104Z,92826.69
2023-11-03T22:31:44.628Z,92827.75
2023-11-03T22:34:11.359Z,92831.44
2023-11-03T22:36:38.070Z,92823.31
2023-11-03T22:39:06.134Z,92833.06
2023-11-03T22:41:32.670Z,92829.44
2023-11-03T22:43:59.209Z,92825.53
2023-11-03T22:46:25.735Z,92829.19
2023-11-03T22:48:53.721Z,92826.34
2023-11-03T22:51:20.601Z,92834.47
2023-11-03T22:53:50.247Z,92836.84
2023-11-03T22:56:20.605Z,92843.13
2023-11-03T22:58:47.104Z,92841.31
2023-11-03T23:01:13.596Z,92843.66
2023-11-03T23:03:42.477Z,92847.84
2023-11-03T23:06:09.908Z,92852.28
2023-11-03T23:08:36.419Z,92851.78
2023-11-03T23:11:03.384Z,92851.53
2023-11-03T23:13:31.297Z,92855.78
2023-11-03T23:15:57.882Z,92855.03
2023-11-03T23:18:24.936Z,92860.28
2023-11-03T23:20:52.003Z,92849.53
2023-11-03T23:23:19.105Z,92852.16
2023-11-03T23:25:45.690Z,92850.88
2023-11-03T23:28:12.530Z,92856.66
2023-11-03T23:30:40.390Z,92857.19
2023-11-03T23:33:07.076Z,92856.13
2023-11-03T23:35:33.729Z,92866.59
2023-11-03T23:38:00.286Z,92858.22
2023-11-03T23:40:26.939Z,92862.66
2023-11-03T23:42:53.697Z,92860.59
2023-11-03T23:45:20.241Z,92857.44
2023-11-03T23:47:48.455Z,92859.84
2023-11-03T23:50:15.061Z,92860.38
2023-11-03T23:52:41.587Z,92869.56
2023-11-03T23:55:08.610Z,92871.44
2023-11-03T23:57:35.437Z,92873.53
